Time;durP1;ratioP1;P1;durP2;ratioP2;P2;SDS_P1;SDS_P2;PMS_P1;PMS_P2;Temp;Humidity;BMP_temperature;BMP_pressure;BME280_temperature;BME280_humidity;BME280_pressure;Samples;Min_cycle;Max_cycle;Signal;HPM_P1;HPM_P2
2023/05/25 00:00:17;;;;;;;15.10;6.13;;;12.90;1.00;;;;;;5078279;28;20497;-81
2023/05/25 00:02:45;;;;;;;15.80;6.83;;;12.90;1.00;;;;;;5101177;28;20420;-80
2023/05/25 00:05:11;;;;;;;8.50;5.23;;;12.80;1.00;;;;;;5079649;28;20544;-81
2023/05/25 00:07:37;;;;;;;9.30;5.73;;;12.80;1.00;;;;;;5093162;28;20447;-81
2023/05/25 00:10:05;;;;;;;10.10;6.00;;;12.80;1.00;;;;;;5073351;28;20438;-80
2023/05/25 00:12:30;;;;;;;7.93;5.40;;;12.70;1.00;;;;;;5068423;28;20446;-82
2023/05/25 00:14:56;;;;;;;9.93;5.30;;;12.70;1.00;;;;;;5090542;28;20937;-80
2023/05/25 00:17:22;;;;;;;17.33;6.23;;;12.70;1.00;;;;;;5098469;28;20254;-82
2023/05/25 00:19:48;;;;;;;14.80;5.33;;;12.60;1.00;;;;;;5091644;28;20192;-81
2023/05/25 00:22:14;;;;;;;13.50;6.50;;;12.50;1.00;;;;;;5099665;28;20790;-81
2023/05/25 00:24:39;;;;;;;9.37;6.50;;;12.50;1.00;;;;;;5086506;28;20204;-82
2023/05/25 00:27:06;;;;;;;9.30;5.30;;;12.40;1.00;;;;;;5098596;28;20181;-82
2023/05/25 00:29:32;;;;;;;11.07;6.60;;;12.30;1.00;;;;;;5091577;28;20195;-82
2023/05/25 00:31:57;;;;;;;10.23;5.73;;;12.30;1.00;;;;;;5090269;28;20439;-82
2023/05/25 00:34:23;;;;;;;13.43;6.70;;;12.20;1.00;;;;;;5097241;28;20180;-82
2023/05/25 00:36:49;;;;;;;20.07;6.20;;;12.20;1.00;;;;;;5080469;28;20580;-82
2023/05/25 00:39:18;;;;;;;10.67;5.83;;;12.20;1.00;;;;;;5098086;28;20239;-82
2023/05/25 00:41:45;;;;;;;10.93;5.37;;;12.20;1.00;;;;;;5093724;28;20188;-82
2023/05/25 00:44:13;;;;;;;7.97;5.83;;;12.10;1.00;;;;;;5095078;28;20415;-81
2023/05/25 00:46:44;;;;;;;16.07;6.30;;;12.10;1.00;;;;;;5097857;28;20434;-82
2023/05/25 00:49:13;;;;;;;16.20;5.97;;;12.10;1.00;;;;;;5099744;28;20418;-81
2023/05/25 00:51:39;;;;;;;13.73;5.70;;;12.10;1.00;;;;;;5080858;28;21035;-80
2023/05/25 00:54:06;;;;;;;7.73;6.47;;;12.00;1.00;;;;;;5085911;28;20441;-81
2023/05/25 00:56:36;;;;;;;9.40;5.83;;;11.90;1.00;;;;;;5097467;28;20422;-79
2023/05/25 00:59:05;;;;;;;12.47;6.03;;;11.90;38.20;;;;;;5075571;28;20480;-80
2023/05/25 01:01:38;;;;;;;15.53;7.33;;;11.80;99.90;;;;;;5069050;28;20435;-81
2023/05/25 01:04:06;;;;;;;13.80;6.53;;;11.70;99.90;;;;;;5079875;28;20449;-81
2023/05/25 01:06:32;;;;;;;12.90;6.90;;;11.70;99.90;;;;;;5082415;28;20434;-81
2023/05/25 01:09:04;;;;;;;14.47;6.37;;;11.70;99.90;;;;;;5085503;28;20435;-80
2023/05/25 01:11:35;;;;;;;11.53;6.20;;;11.70;99.90;;;;;;5079594;28;20494;-82
2023/05/25 01:14:01;;;;;;;10.13;5.70;;;11.70;99.90;;;;;;5090905;28;20516;-80
2023/05/25 01:16:28;;;;;;;10.70;5.67;;;11.70;99.90;;;;;;5080881;28;20500;-82
2023/05/25 01:18:54;;;;;;;16.27;7.00;;;11.60;99.90;;;;;;5093871;28;20501;-81
2023/05/25 01:21:40;;;;;;;12.00;6.87;;;11.60;99.90;;;;;;5094492;28;20826;-81
2023/05/25 01:24:31;;;;;;;13.70;6.70;;;11.60;99.90;;;;;;5094544;28;20475;-80
2023/05/25 01:27:18;;;;;;;12.57;6.53;;;11.60;99.90;;;;;;5099240;28;20434;-82
2023/05/25 01:29:45;;;;;;;15.80;7.53;;;11.60;99.90;;;;;;5082745;28;20418;-81
2023/05/25 01:32:12;;;;;;;10.30;6.50;;;11.50;99.90;;;;;;5073019;28;20426;-79
2023/05/25 01:34:40;;;;;;;11.30;6.53;;;11.50;99.90;;;;;;5088056;28;20457;-80
2023/05/25 01:37:06;;;;;;;14.10;5.70;;;11.50;99.90;;;;;;5090207;28;20414;-82
2023/05/25 01:39:31;;;;;;;12.40;6.50;;;11.50;99.90;;;;;;5078348;28;20869;-81
2023/05/25 01:41:57;;;;;;;16.87;8.90;;;11.50;99.90;;;;;;5069175;28;20177;-83
2023/05/25 01:44:23;;;;;;;11.20;6.23;;;11.50;99.90;;;;;;5071060;28;20691;-80
2023/05/25 01:47:15;;;;;;;11.87;6.93;;;11.50;99.90;;;;;;5095439;28;20230;-81
2023/05/25 01:49:58;;;;;;;11.63;6.23;;;11.40;99.90;;;;;;5073171;28;20434;-83
2023/05/25 01:52:37;;;;;;;13.73;6.90;;;11.30;99.90;;;;;;5098379;28;20426;-83
2023/05/25 01:55:10;;;;;;;12.47;6.90;;;11.30;99.90;;;;;;5097534;28;20452;-83
2023/05/25 01:57:40;;;;;;;9.90;6.50;;;11.20;99.90;;;;;;5095633;28;20834;-82
2023/05/25 02:00:06;;;;;;;8.57;6.33;;;11.20;99.90;;;;;;5092443;28;20454;-80
2023/05/25 02:02:33;;;;;;;17.90;8.67;;;11.10;99.90;;;;;;5096035;28;20525;-82
2023/05/25 02:04:58;;;;;;;16.43;6.63;;;11.10;1.00;;;;;;5075165;28;20454;-80
2023/05/25 02:07:24;;;;;;;11.80;6.57;;;11.10;1.00;;;;;;5074170;28;20435;-83
2023/05/25 02:09:50;;;;;;;16.40;7.47;;;11.10;1.00;;;;;;5087393;28;20181;-81
2023/05/25 02:12:15;;;;;;;11.20;6.80;;;11.10;1.00;;;;;;5086149;28;20670;-80
2023/05/25 02:14:41;;;;;;;11.07;7.13;;;11.10;1.00;;;;;;5078485;28;20227;-81
2023/05/25 02:17:07;;;;;;;11.87;7.70;;;11.00;1.00;;;;;;5079011;28;20180;-81
2023/05/25 02:19:34;;;;;;;16.93;7.33;;;11.00;1.00;;;;;;5083837;28;20273;-81
2023/05/25 02:22:00;;;;;;;17.40;7.90;;;11.00;1.00;;;;;;5091479;28;20208;-82
2023/05/25 02:24:26;;;;;;;15.77;7.67;;;11.00;1.00;;;;;;5096433;28;20461;-82
2023/05/25 02:26:51;;;;;;;10.83;7.83;;;11.00;1.00;;;;;;5089626;28;20173;-80
2023/05/25 02:29:17;;;;;;;14.73;7.30;;;11.00;1.00;;;;;;5089828;28;20430;-81
2023/05/25 02:31:42;;;;;;;13.93;7.30;;;10.90;1.00;;;;;;5085104;28;20184;-81
2023/05/25 02:34:08;;;;;;;12.47;7.73;;;10.90;1.00;;;;;;5072929;28;20204;-82
2023/05/25 02:36:33;;;;;;;11.50;6.70;;;10.90;1.00;;;;;;5097252;28;20259;-82
2023/05/25 02:39:00;;;;;;;14.23;9.00;;;10.90;1.00;;;;;;5074408;28;20848;-82
2023/05/25 02:41:26;;;;;;;11.20;6.93;;;10.90;1.00;;;;;;5081283;28;20184;-82
2023/05/25 02:43:52;;;;;;;12.60;7.03;;;10.90;12.60;;;;;;5094605;28;20412;-81
2023/05/25 02:46:18;;;;;;;29.57;8.23;;;10.80;33.70;;;;;;5100667;28;20503;-82
2023/05/25 02:48:45;;;;;;;16.00;7.13;;;10.80;77.90;;;;;;5093178;28;20434;-81
2023/05/25 02:51:10;;;;;;;16.10;8.80;;;10.80;99.90;;;;;;5086059;28;20452;-82
2023/05/25 02:53:36;;;;;;;13.67;7.83;;;10.70;99.90;;;;;;5084672;28;20510;-81
2023/05/25 02:56:03;;;;;;;15.97;8.77;;;10.70;99.90;;;;;;5073234;28;20286;-82
2023/05/25 02:58:29;;;;;;;24.53;8.27;;;10.80;99.90;;;;;;5093473;28;20222;-82
2023/05/25 03:00:54;;;;;;;11.57;7.70;;;10.70;99.90;;;;;;5101395;28;20524;-80
2023/05/25 03:03:20;;;;;;;13.37;7.97;;;10.70;99.90;;;;;;5101417;28;20179;-79
2023/05/25 03:05:47;;;;;;;12.97;8.53;;;10.70;99.90;;;;;;5101659;28;20196;-80
2023/05/25 03:08:13;;;;;;;18.80;9.27;;;10.70;99.90;;;;;;5101735;28;20180;-81
2023/05/25 03:10:38;;;;;;;21.33;9.30;;;10.70;99.90;;;;;;5099730;28;20873;-81
2023/05/25 03:13:03;;;;;;;14.70;9.07;;;10.70;99.90;;;;;;5097115;28;20192;-83
2023/05/25 03:15:29;;;;;;;22.30;9.10;;;10.70;99.90;;;;;;5093902;28;20650;-81
2023/05/25 03:18:00;;;;;;;12.40;7.73;;;10.70;99.90;;;;;;5093646;28;20262;-81
2023/05/25 03:20:26;;;;;;;17.90;7.97;;;10.60;1.00;;;;;;5101034;28;20582;-80
2023/05/25 03:22:51;;;;;;;18.93;9.37;;;10.60;1.00;;;;;;5088776;28;21007;-79
2023/05/25 03:25:17;;;;;;;20.23;9.10;;;10.60;1.00;;;;;;5092819;28;20493;-80
2023/05/25 03:27:42;;;;;;;14.63;8.77;;;10.60;1.00;;;;;;5100327;28;20199;-81
2023/05/25 03:30:08;;;;;;;15.87;9.03;;;10.60;1.00;;;;;;5098959;28;20210;-82
2023/05/25 03:32:35;;;;;;;19.57;8.90;;;10.60;1.00;;;;;;5090911;28;20200;-79
2023/05/25 03:35:00;;;;;;;18.43;9.80;;;10.50;1.00;;;;;;5075635;28;20461;-81
2023/05/25 03:37:26;;;;;;;16.03;9.73;;;10.50;1.00;;;;;;5100723;28;20433;-80
2023/05/25 03:39:51;;;;;;;15.03;8.67;;;10.60;1.00;;;;;;5101016;28;20200;-83
2023/05/25 03:42:17;;;;;;;22.50;10.53;;;10.50;1.00;;;;;;5084462;28;20275;-80
2023/05/25 03:44:42;;;;;;;21.10;10.30;;;10.60;1.00;;;;;;5080750;28;20209;-81
2023/05/25 03:47:08;;;;;;;13.77;9.07;;;10.50;1.00;;;;;;5094409;28;20200;-82
2023/05/25 03:49:33;;;;;;;19.00;9.17;;;10.50;1.00;;;;;;5082304;28;20188;-81
2023/05/25 03:52:00;;;;;;;21.97;10.50;;;10.50;1.00;;;;;;5090233;28;20317;-81
2023/05/25 03:54:25;;;;;;;15.60;9.33;;;10.50;1.00;;;;;;5080866;28;20205;-84
2023/05/25 03:56:51;;;;;;;18.43;9.30;;;10.50;1.00;;;;;;5092880;28;20442;-81
2023/05/25 03:59:17;;;;;;;15.60;9.93;;;10.60;1.00;;;;;;5075416;28;20234;-82
2023/05/25 04:01:43;;;;;;;17.50;10.43;;;10.60;1.00;;;;;;5091537;28;20180;-81
2023/05/25 04:04:09;;;;;;;22.23;8.90;;;10.60;1.00;;;;;;5091136;28;20434;-81
2023/05/25 04:06:36;;;;;;;16.90;9.30;;;10.60;1.00;;;;;;5098627;28;20448;-83
2023/05/25 04:09:03;;;;;;;17.83;10.50;;;10.70;1.00;;;;;;5081807;28;20185;-81
2023/05/25 04:11:29;;;;;;;16.00;8.50;;;10.70;1.00;;;;;;5092058;28;20448;-82
2023/05/25 04:13:54;;;;;;;15.77;8.80;;;10.80;1.00;;;;;;5094092;28;20445;-82
2023/05/25 04:16:20;;;;;;;25.60;9.53;;;10.80;1.00;;;;;;5100040;28;20208;-83
2023/05/25 04:18:46;;;;;;;14.30;9.37;;;10.90;1.00;;;;;;5101034;28;20216;-80
2023/05/25 04:21:11;;;;;;;16.70;9.27;;;10.90;1.00;;;;;;5094108;28;20929;-83
2023/05/25 04:23:37;;;;;;;16.43;9.17;;;11.10;1.00;;;;;;5090467;28;20188;-81
2023/05/25 04:26:04;;;;;;;21.07;10.67;;;11.10;1.00;;;;;;5064665;28;20591;-82
2023/05/25 04:28:31;;;;;;;18.93;10.17;;;11.20;99.90;;;;;;5081327;28;20185;-82
2023/05/25 04:30:57;;;;;;;15.90;9.10;;;11.30;99.90;;;;;;5090243;28;20460;-82
2023/05/25 04:33:23;;;;;;;16.97;9.73;;;11.40;99.90;;;;;;5083323;28;20418;-83
2023/05/25 04:35:49;;;;;;;13.60;10.10;;;11.50;99.90;;;;;;5087983;28;20291;-84
2023/05/25 04:38:19;;;;;;;17.93;10.33;;;11.60;99.90;;;;;;5101291;28;20414;-83
2023/05/25 04:40:47;;;;;;;17.63;10.63;;;11.60;35.60;;;;;;5101360;28;20418;-81
2023/05/25 04:43:17;;;;;;;17.87;11.27;;;11.70;1.00;;;;;;5073777;28;20437;-82
2023/05/25 04:45:44;;;;;;;17.10;9.83;;;11.80;1.00;;;;;;5077214;28;21093;-82
2023/05/25 04:48:11;;;;;;;24.80;10.23;;;11.90;1.00;;;;;;5092628;28;20418;-81
2023/05/25 04:50:39;;;;;;;27.60;11.20;;;12.00;1.00;;;;;;5094932;28;20444;-80
2023/05/25 04:53:05;;;;;;;18.93;9.67;;;12.00;1.00;;;;;;5096321;28;20454;-78
2023/05/25 04:55:31;;;;;;;17.03;10.90;;;12.20;1.00;;;;;;5099140;28;20996;-80
2023/05/25 04:57:57;;;;;;;21.53;11.40;;;12.30;1.00;;;;;;5070969;28;20423;-81
2023/05/25 05:00:23;;;;;;;15.57;10.47;;;12.40;1.00;;;;;;5086943;28;20212;-80
2023/05/25 05:02:55;;;;;;;18.20;12.30;;;12.50;1.00;;;;;;5077887;28;20430;-79
2023/05/25 05:05:21;;;;;;;22.13;11.27;;;12.60;1.00;;;;;;5095183;28;20454;-83
2023/05/25 05:07:46;;;;;;;21.70;10.90;;;12.80;99.90;;;;;;5090991;28;20444;-84
2023/05/25 05:10:12;;;;;;;15.87;9.57;;;12.90;99.90;;;;;;5093362;28;20453;-83
2023/05/25 05:12:38;;;;;;;20.40;10.30;;;13.10;99.90;;;;;;5098220;28;20704;-83
2023/05/25 05:15:04;;;;;;;19.07;11.00;;;13.20;99.90;;;;;;5099851;28;20212;-80
2023/05/25 05:17:30;;;;;;;25.40;11.40;;;13.30;99.90;;;;;;5089529;28;20450;-81
2023/05/25 05:19:56;;;;;;;19.80;11.20;;;13.50;99.90;;;;;;5100087;28;20470;-81
2023/05/25 05:22:21;;;;;;;16.80;10.73;;;13.60;93.80;;;;;;5098821;28;20191;-82
2023/05/25 05:24:47;;;;;;;17.40;10.60;;;13.80;25.30;;;;;;5082727;28;20442;-79
2023/05/25 05:27:14;;;;;;;15.97;10.67;;;13.90;1.00;;;;;;5081839;28;20181;-80
2023/05/25 05:29:41;;;;;;;15.60;10.27;;;14.00;1.00;;;;;;5081964;28;20453;-80
2023/05/25 05:32:07;;;;;;;22.97;11.40;;;14.10;1.00;;;;;;5095913;28;20448;-80
2023/05/25 05:34:33;;;;;;;21.03;12.63;;;14.20;1.00;;;;;;5090666;28;20463;-80
2023/05/25 05:36:59;;;;;;;19.13;11.50;;;14.40;1.00;;;;;;5080330;28;20186;-82
2023/05/25 05:39:26;;;;;;;21.83;11.37;;;14.60;1.00;;;;;;5098319;28;20571;-79
2023/05/25 05:41:52;;;;;;;18.17;10.50;;;14.70;1.00;;;;;;5098904;28;20187;-81
2023/05/25 05:44:20;;;;;;;20.80;10.67;;;14.90;1.00;;;;;;5094934;28;20452;-78
2023/05/25 05:46:45;;;;;;;21.77;11.10;;;15.10;1.00;;;;;;5087143;28;20480;-83
2023/05/25 05:49:11;;;;;;;17.17;9.87;;;15.30;1.00;;;;;;5075892;28;20438;-82
2023/05/25 05:51:36;;;;;;;19.70;10.00;;;15.60;1.00;;;;;;5094530;28;20198;-81
2023/05/25 05:54:02;;;;;;;24.40;10.50;;;15.90;1.00;;;;;;5079194;28;20189;-82
2023/05/25 05:56:28;;;;;;;15.40;9.70;;;16.50;99.90;;;;;;5078434;28;20338;-81
2023/05/25 05:58:53;;;;;;;13.57;8.33;;;17.80;99.90;;;;;;5098026;28;20493;-83
2023/05/25 06:01:20;;;;;;;10.93;8.90;;;20.70;99.90;;;;;;5068214;28;20615;-83
2023/05/25 06:03:46;;;;;;;13.87;8.67;;;23.80;99.90;;;;;;5080883;28;20184;-82
2023/05/25 06:06:12;;;;;;;13.83;8.13;;;26.60;99.90;;;;;;5097775;28;20996;-80
2023/05/25 06:08:39;;;;;;;9.67;7.67;;;28.90;99.90;;;;;;5079286;28;20437;-80
2023/05/25 06:11:05;;;;;;;11.57;7.93;;;31.00;99.90;;;;;;5095935;28;20172;-80
2023/05/25 06:13:31;;;;;;;12.83;8.50;;;32.70;99.90;;;;;;5086330;28;20465;-82
2023/05/25 06:15:56;;;;;;;12.10;8.43;;;34.20;99.90;;;;;;5075243;28;20309;-82
2023/05/25 06:18:22;;;;;;;14.40;8.37;;;35.20;99.90;;;;;;5094325;28;20188;-80
2023/05/25 06:20:47;;;;;;;12.73;8.50;;;35.90;99.90;;;;;;5080672;28;20263;-82
2023/05/25 06:23:13;;;;;;;12.63;7.60;;;36.30;99.90;;;;;;5095890;28;20230;-80
2023/05/25 06:25:39;;;;;;;13.33;8.20;;;36.90;99.90;;;;;;5072856;28;20204;-84
2023/05/25 06:28:05;;;;;;;10.70;6.87;;;37.70;99.90;;;;;;5098292;28;20188;-83
2023/05/25 06:30:30;;;;;;;13.90;8.40;;;38.30;99.90;;;;;;5081918;28;20445;-84
2023/05/25 06:32:56;;;;;;;11.77;7.50;;;38.60;99.90;;;;;;5092730;28;20180;-79
2023/05/25 06:35:22;;;;;;;15.77;8.10;;;39.20;99.90;;;;;;5080398;28;20698;-80
2023/05/25 06:37:48;;;;;;;15.47;8.90;;;40.30;99.90;;;;;;5072209;28;20196;-84
2023/05/25 06:40:17;;;;;;;13.03;7.13;;;41.20;99.90;;;;;;5092180;28;20223;-84
2023/05/25 06:42:43;;;;;;;13.13;7.40;;;42.30;99.90;;;;;;5093634;28;20806;-84
2023/05/25 06:45:09;;;;;;;14.10;7.97;;;43.80;99.90;;;;;;5095403;28;20469;-83
2023/05/25 06:47:35;;;;;;;9.53;6.53;;;45.30;99.90;;;;;;5081536;28;20199;-84
2023/05/25 06:50:01;;;;;;;9.20;6.37;;;46.90;99.60;;;;;;5093415;28;20465;-84
2023/05/25 06:52:30;;;;;;;9.47;6.80;;;48.20;96.60;;;;;;5098514;28;20179;-84
2023/05/25 06:54:56;;;;;;;12.37;7.17;;;49.30;94.30;;;;;;5071756;28;20287;-84
2023/05/25 06:57:22;;;;;;;7.90;6.10;;;50.10;91.10;;;;;;5093976;28;20445;-84
2023/05/25 06:59:48;;;;;;;9.83;7.17;;;50.80;84.50;;;;;;5097450;28;20179;-85
2023/05/25 07:02:13;;;;;;;10.67;6.23;;;51.10;77.60;;;;;;5097742;28;20172;-83
2023/05/25 07:04:39;;;;;;;10.73;6.67;;;51.40;71.20;;;;;;5090009;28;20238;-84
2023/05/25 07:07:05;;;;;;;10.20;6.87;;;51.70;65.30;;;;;;5095052;28;20208;-85
2023/05/25 07:09:31;;;;;;;8.37;6.30;;;51.70;58.90;;;;;;5089938;28;20203;-84
2023/05/25 07:11:56;;;;;;;10.83;6.70;;;51.80;56.00;;;;;;5097169;28;20187;-83
2023/05/25 07:14:22;;;;;;;9.45;6.05;;;52.40;54.00;;;;;;5091786;28;20165;-84
2023/05/25 07:16:48;;;;;;;10.82;7.55;;;52.80;51.70;;;;;;5092827;28;20953;-84
2023/05/25 07:19:13;;;;;;;10.93;6.85;;;53.20;49.30;;;;;;5091169;28;20175;-85
2023/05/25 07:21:39;;;;;;;12.48;6.72;;;53.50;47.90;;;;;;5096957;28;20199;-84
2023/05/25 07:24:05;;;;;;;10.48;6.53;;;53.70;45.50;;;;;;5088059;28;20192;-84
2023/05/25 07:26:32;;;;;;;9.10;6.15;;;53.80;43.70;;;;;;5083451;28;20271;-82
2023/05/25 07:29:01;;;;;;;8.75;6.47;;;54.10;42.20;;;;;;5091115;28;20215;-82
2023/05/25 07:31:26;;;;;;;9.65;6.45;;;54.40;41.20;;;;;;5087504;28;20197;-85
2023/05/25 07:33:55;;;;;;;11.27;6.10;;;54.50;39.90;;;;;;5074303;28;20175;-85
2023/05/25 07:36:23;;;;;;;7.55;5.75;;;54.80;38.30;;;;;;5094538;28;20203;-85
2023/05/25 07:38:49;;;;;;;9.98;6.85;;;55.00;37.80;;;;;;5074707;28;20206;-85
2023/05/25 07:41:14;;;;;;;9.60;5.88;;;55.20;37.20;;;;;;5068364;28;20211;-85
2023/05/25 07:43:43;;;;;;;8.30;5.70;;;55.10;34.00;;;;;;5091220;28;20180;-85
2023/05/25 07:46:08;;;;;;;7.55;5.68;;;55.00;32.70;;;;;;5091661;28;20230;-85
2023/05/25 07:48:36;;;;;;;12.00;5.85;;;55.00;31.60;;;;;;5093856;28;20179;-85
2023/05/25 07:51:02;;;;;;;6.57;5.38;;;54.60;30.40;;;;;;5093380;28;20203;-84
2023/05/25 07:53:27;;;;;;;9.98;5.90;;;54.70;29.50;;;;;;5093195;28;20221;-83
2023/05/25 07:55:53;;;;;;;10.93;5.85;;;54.40;28.40;;;;;;5092392;28;20691;-85
2023/05/25 07:58:18;;;;;;;8.82;5.38;;;53.90;26.80;;;;;;5091239;28;20186;-85
2023/05/25 08:00:44;;;;;;;7.80;5.38;;;53.50;26.30;;;;;;5070516;28;20304;-84
2023/05/25 08:03:11;;;;;;;17.33;6.25;;;53.80;26.50;;;;;;5092225;28;20199;-84
2023/05/25 08:05:37;;;;;;;12.27;7.30;;;54.20;26.70;;;;;;5074505;28;20294;-83
2023/05/25 08:08:03;;;;;;;8.63;5.97;;;52.40;24.20;;;;;;5077925;28;20199;-83
2023/05/25 08:10:31;;;;;;;7.90;5.80;;;49.20;19.40;;;;;;5089399;28;20194;-85
2023/05/25 08:12:57;;;;;;;15.50;7.40;;;49.30;21.90;;;;;;5094049;28;20189;-85
2023/05/25 08:15:23;;;;;;;10.20;6.80;;;47.10;18.10;;;;;;5088624;28;20477;-83
2023/05/25 08:17:51;;;;;;;11.17;6.53;;;45.70;17.60;;;;;;5096103;28;20442;-83
2023/05/25 08:20:17;;;;;;;9.43;6.10;;;44.40;16.20;;;;;;5094278;28;20548;-85
2023/05/25 08:22:45;;;;;;;11.10;8.00;;;45.70;20.20;;;;;;5074884;28;20503;-85
2023/05/25 08:25:10;;;;;;;12.03;7.07;;;43.50;16.70;;;;;;5074586;28;20544;-84
2023/05/25 08:27:39;;;;;;;11.00;7.17;;;42.50;15.70;;;;;;5098065;28;20446;-82
2023/05/25 08:30:06;;;;;;;10.57;6.63;;;41.20;14.70;;;;;;5097306;28;20658;-84
2023/05/25 08:32:35;;;;;;;16.13;6.30;;;40.20;14.30;;;;;;5093926;28;20437;-84
2023/05/25 08:35:02;;;;;;;11.70;6.80;;;38.90;13.30;;;;;;5078835;28;20462;-82
2023/05/25 08:37:28;;;;;;;12.23;6.50;;;38.30;14.70;;;;;;5081844;28;20464;-83
2023/05/25 08:39:53;;;;;;;10.97;6.20;;;39.10;17.10;;;;;;5094912;28;20470;-81
2023/05/25 08:42:19;;;;;;;10.30;6.00;;;41.80;23.30;;;;;;5097763;28;20226;-81
2023/05/25 08:44:45;;;;;;;10.07;6.20;;;41.50;22.40;;;;;;5080532;28;20200;-84
2023/05/25 08:47:14;;;;;;;11.03;6.20;;;39.50;17.90;;;;;;5097899;28;20446;-84
2023/05/25 08:49:40;;;;;;;8.73;5.90;;;37.20;15.00;;;;;;5099548;28;20180;-84
2023/05/25 08:52:12;;;;;;;12.67;6.97;;;35.40;12.90;;;;;;5100432;28;20417;-82
2023/05/25 08:54:41;;;;;;;11.10;6.27;;;33.70;11.20;;;;;;5098832;28;20458;-84
2023/05/25 08:57:14;;;;;;;10.97;7.23;;;33.00;11.80;;;;;;5086588;28;20473;-84
2023/05/25 08:59:51;;;;;;;12.40;7.23;;;32.60;12.50;;;;;;5069072;28;20894;-85
2023/05/25 09:02:34;;;;;;;9.20;6.90;;;31.60;11.70;;;;;;5089447;28;21025;-85
2023/05/25 09:05:00;;;;;;;11.00;6.63;;;30.80;12.00;;;;;;5090499;28;20465;-85
2023/05/25 09:07:28;;;;;;;12.63;7.50;;;32.90;18.40;;;;;;5094985;28;20436;-83
2023/05/25 09:09:57;;;;;;;10.53;6.83;;;36.30;25.70;;;;;;5097046;28;20455;-87
2023/05/25 09:12:23;;;;;;;8.97;6.53;;;38.90;30.10;;;;;;5096993;28;20452;-84
2023/05/25 09:14:49;;;;;;;9.17;6.50;;;40.80;32.30;;;;;;5092869;28;20450;-84
2023/05/25 09:17:16;;;;;;;10.70;7.83;;;39.80;29.90;;;;;;5089709;28;20179;-83
2023/05/25 09:19:41;;;;;;;12.90;9.10;;;40.10;29.60;;;;;;5097470;28;20458;-83
2023/05/25 09:22:09;;;;;;;35.80;9.80;;;39.20;27.60;;;;;;5094195;28;20525;-83
2023/05/25 09:24:35;;;;;;;14.63;8.13;;;41.20;31.90;;;;;;5071236;28;20633;-84
2023/05/25 09:27:02;;;;;;;15.67;8.73;;;39.10;26.60;;;;;;5088365;28;20423;-85
2023/05/25 09:29:28;;;;;;;10.93;8.17;;;37.50;23.70;;;;;;5067006;28;20704;-84
2023/05/25 09:31:55;;;;;;;16.07;7.70;;;37.50;24.50;;;;;;5096315;28;20475;-83
2023/05/25 09:34:20;;;;;;;12.83;9.10;;;36.90;24.10;;;;;;5097797;28;20414;-84
2023/05/25 09:36:46;;;;;;;13.43;9.83;;;35.70;21.80;;;;;;5097034;28;20410;-83
2023/05/25 09:39:14;;;;;;;13.90;11.07;;;34.40;19.80;;;;;;5093776;28;20726;-84
2023/05/25 09:41:41;;;;;;;13.97;9.50;;;33.10;17.90;;;;;;5092641;28;20169;-84
2023/05/25 09:44:07;;;;;;;11.20;7.70;;;33.20;19.70;;;;;;5068854;28;20972;-86
2023/05/25 09:46:35;;;;;;;10.30;8.53;;;32.90;19.80;;;;;;5093676;28;20265;-84
2023/05/25 09:49:03;;;;;;;13.17;8.50;;;33.10;21.00;;;;;;5100356;28;20188;-84
2023/05/25 09:51:32;;;;;;;10.40;7.87;;;33.30;22.80;;;;;;5085755;28;20407;-85
2023/05/25 09:54:02;;;;;;;10.33;7.30;;;33.00;22.00;;;;;;5083404;28;20892;-84
2023/05/25 09:56:32;;;;;;;10.43;7.90;;;33.50;24.50;;;;;;5083363;28;20795;-86
2023/05/25 09:58:58;;;;;;;9.57;8.30;;;35.00;27.60;;;;;;5095013;28;20473;-83
2023/05/25 10:01:24;;;;;;;11.37;8.77;;;35.90;29.40;;;;;;5096113;28;20426;-83
2023/05/25 10:03:52;;;;;;;11.03;9.57;;;34.90;27.40;;;;;;5098706;28;20265;-85
2023/05/25 10:06:17;;;;;;;13.70;10.60;;;35.00;27.20;;;;;;5084230;28;20454;-84
2023/05/25 10:08:46;;;;;;;13.53;12.13;;;35.80;29.50;;;;;;5064444;28;20426;-85
2023/05/25 10:11:13;;;;;;;13.10;11.70;;;34.80;27.90;;;;;;5083485;28;20234;-84
2023/05/25 10:13:40;;;;;;;18.77;13.73;;;34.00;25.80;;;;;;5093645;28;20485;-83
2023/05/25 10:16:08;;;;;;;14.10;12.00;;;33.00;35.10;;;;;;5092591;28;20439;-84
2023/05/25 10:18:36;;;;;;;15.87;13.20;;;34.70;28.70;;;;;;5083670;28;20413;-85
2023/05/25 10:21:03;;;;;;;15.77;14.17;;;35.90;32.40;;;;;;5082575;28;20426;-84
2023/05/25 10:23:36;;;;;;;16.03;14.43;;;35.40;29.40;;;;;;5083179;28;20843;-83
2023/05/25 10:26:05;;;;;;;17.10;15.40;;;34.80;28.70;;;;;;5102620;28;20873;-85
2023/05/25 10:28:35;;;;;;;19.30;14.97;;;34.20;27.30;;;;;;5101673;28;20421;-85
2023/05/25 10:31:02;;;;;;;16.27;14.67;;;33.30;25.50;;;;;;5101681;28;20421;-82
2023/05/25 10:33:29;;;;;;;15.30;13.70;;;33.60;27.00;;;;;;5097077;28;20447;-85
2023/05/25 10:35:56;;;;;;;14.03;12.63;;;34.50;29.00;;;;;;5096622;28;20453;-84
2023/05/25 10:38:25;;;;;;;16.27;13.00;;;35.00;30.90;;;;;;5100135;28;20422;-84
2023/05/25 10:40:53;;;;;;;13.60;12.30;;;35.00;30.00;;;;;;5096892;28;20418;-84
2023/05/25 10:43:19;;;;;;;14.87;11.90;;;34.20;28.80;;;;;;5100488;28;20411;-87
2023/05/25 10:45:47;;;;;;;14.10;12.60;;;33.50;27.40;;;;;;5090115;28;20470;-85
2023/05/25 10:48:14;;;;;;;16.43;12.70;;;33.10;27.40;;;;;;5083249;28;21027;-85
2023/05/25 10:50:39;;;;;;;13.50;11.17;;;34.30;29.90;;;;;;5069191;28;20435;-84
2023/05/25 10:53:07;;;;;;;15.67;11.83;;;35.70;33.90;;;;;;5091767;28;20442;-84
2023/05/25 10:55:51;;;;;;;11.93;9.97;;;36.40;35.10;;;;;;5093194;28;20203;-83
2023/05/25 10:58:22;;;;;;;15.30;11.70;;;36.10;33.00;;;;;;5091510;28;20502;-84
2023/05/25 11:01:08;;;;;;;15.37;12.20;;;35.40;30.80;;;;;;5066767;28;20462;-84
2023/05/25 11:04:01;;;;;;;26.27;12.90;;;34.40;28.80;;;;;;5096918;28;20525;-85
2023/05/25 11:06:44;;;;;;;13.70;11.17;;;34.00;27.70;;;;;;5090263;28;20466;-85
2023/05/25 11:09:26;;;;;;;12.53;11.20;;;33.80;27.80;;;;;;5092129;28;20434;-85
2023/05/25 11:11:54;;;;;;;12.03;10.50;;;33.80;28.60;;;;;;5091622;28;20512;-85
2023/05/25 11:14:26;;;;;;;12.27;9.97;;;33.90;29.10;;;;;;5095625;28;20794;-84
2023/05/25 11:17:13;;;;;;;12.53;9.70;;;33.50;28.00;;;;;;5067803;28;20422;-83
2023/05/25 11:19:38;;;;;;;14.67;10.73;;;32.80;26.30;;;;;;5088051;28;20466;-85
2023/05/25 11:22:30;;;;;;;14.63;9.27;;;32.40;26.10;;;;;;5098017;28;20438;-85
2023/05/25 11:24:58;;;;;;;11.80;10.57;;;32.40;27.30;;;;;;5089318;28;20207;-85
2023/05/25 11:27:27;;;;;;;12.03;10.50;;;31.80;25.80;;;;;;5092965;28;20435;-85
2023/05/25 11:29:55;;;;;;;17.43;11.40;;;31.30;25.40;;;;;;5094311;28;20442;-84
2023/05/25 11:32:21;;;;;;;12.60;11.43;;;30.80;24.60;;;;;;5093765;28;20485;-83
2023/05/25 11:34:47;;;;;;;13.70;9.80;;;30.30;24.70;;;;;;5098612;28;20438;-86
2023/05/25 11:37:19;;;;;;;10.33;9.23;;;29.90;24.50;;;;;;5102863;28;20502;-84
2023/05/25 11:39:50;;;;;;;9.47;8.33;;;29.50;24.50;;;;;;5098502;28;20507;-85
2023/05/25 11:42:18;;;;;;;14.27;10.33;;;29.30;24.70;;;;;;5081752;28;20429;-85
2023/05/25 11:44:44;;;;;;;14.17;10.30;;;29.10;25.40;;;;;;5100837;28;20459;-86
2023/05/25 11:47:13;;;;;;;10.50;9.50;;;29.90;28.20;;;;;;5082916;28;20417;-83
2023/05/25 11:49:44;;;;;;;11.40;10.33;;;30.00;28.40;;;;;;5099757;28;20255;-82
2023/05/25 11:52:15;;;;;;;11.40;9.03;;;30.30;29.90;;;;;;5096614;28;20410;-85
2023/05/25 11:54:41;;;;;;;9.93;8.77;;;30.40;30.80;;;;;;5101454;28;20438;-84
2023/05/25 11:57:23;;;;;;;12.03;8.07;;;31.40;33.90;;;;;;5091514;28;20444;-81
2023/05/25 11:59:50;;;;;;;11.03;8.80;;;31.70;34.30;;;;;;5074662;28;20509;-85
2023/05/25 12:02:16;;;;;;;8.70;7.90;;;31.70;33.60;;;;;;5099331;28;20434;-85
2023/05/25 12:04:55;;;;;;;12.13;7.50;;;32.50;35.70;;;;;;5085272;28;20469;-86
2023/05/25 12:07:21;;;;;;;8.90;8.07;;;32.60;35.50;;;;;;5081275;28;20419;-86
2023/05/25 12:09:46;;;;;;;7.57;6.87;;;31.80;33.50;;;;;;5062744;28;20426;-86
2023/05/25 12:12:15;;;;;;;11.37;7.70;;;31.30;32.90;;;;;;5082151;28;20181;-84
2023/05/25 12:14:49;;;;;;;11.80;9.10;;;31.20;33.20;;;;;;5080484;28;20343;-85
2023/05/25 12:17:16;;;;;;;11.73;8.07;;;30.70;31.80;;;;;;5073193;28;20438;-85
2023/05/25 12:19:42;;;;;;;9.73;8.73;;;31.00;33.00;;;;;;5090671;28;20481;-85
2023/05/25 12:22:09;;;;;;;11.60;10.27;;;31.20;33.90;;;;;;5100740;28;20917;-86
2023/05/25 12:24:34;;;;;;;11.90;8.10;;;31.00;33.50;;;;;;5101484;28;20517;-86
2023/05/25 12:27:01;;;;;;;11.80;8.27;;;30.90;33.80;;;;;;5092079;28;20941;-84
2023/05/25 12:29:27;;;;;;;9.63;8.50;;;30.40;32.10;;;;;;5094890;28;20197;-85
2023/05/25 12:32:04;;;;;;;10.80;9.80;;;30.00;31.30;;;;;;5097425;28;20440;-86
2023/05/25 12:34:30;;;;;;;11.43;10.30;;;30.00;33.00;;;;;;5096977;28;20484;-85
2023/05/25 12:36:56;;;;;;;14.93;10.80;;;30.20;33.20;;;;;;5080854;28;20422;-85
2023/05/25 12:39:30;;;;;;;12.03;9.77;;;30.70;35.50;;;;;;5077142;28;20200;-85